West Point, Pennsylvania
Current Conditions -  °F | °C
As of 8:15 PM on Saturday 22 Nov 2014 (Local Time) from KLOM Reporting Station
Overcast Overcast  
Wind Chill: 40°   Ceiling: 8000
Heat Index: 43°   Visibility: 10mi
Dew Point: 23°   Wind: 5mph
Humidity: 46%   Direction: 230°SW
Pressure: 30.26"   Gusts: NA
Location:  40.2°N, 75.29°W
Report Text: KLOM 230115Z AUTO 23004KT 10SM BKN080 OVC085 06/M05 A3026 RMK AO1
Loading
Personal Weather Stations






























Interactive Weather Map New forecast layout! Learn more

10-Day Weather Forecast

Advertisements
Track Severe Weather on mobile